Puerto Banus, Marbella

>

This is an optional block (switch it off / on) in the settings - file ($SITE['banners'] = false;)

You can display ads, any other important text or photo’s using text / html or PHP code.

You can place one or more at the top and or bottom and it can all be different for content / size .


Meteosat more information blitzortung!


Radar lluvias more information rain snow radar


Visita nuestra red de sitios de meteo:

Documentation for the template used

MeteoibericaRed estaciones Meteorologicas

MeteoclimaticRed estaciones Meteorologicas



No particular awareness of the weather is required.    There are no Weather-warnings

Informes METAR proximidad

   
EHVK - Volkel Rnlafb, Netherlands
Distancia hasta la estación: SW 18 km
Actualización: 13-12-2019 11:55
Niebla, Nublado  
Niebla, Nublado  
   Viento: ESE 7.4 km/h
Viento: ESE 7.4 km/h
Temperatura: 4°C
Térmica: 2°C
Punto de rocío: 4°C
Humedad: 100%
Baromètro: 974 hPa
Nublado: Nublado
Visibilidad: 2 km
detalles de la nube: Parcialmente nublado 200 ft,
Nublado 300 ft
EHVK 131055Z AUTO 11004KT 090V150 2400 R06L/2400D BR BKN002 OVC003 04/04 Q0974 AMB 11006KT 9000 SCT004 BKN010 BKN015 TEMPO 2000 DZRA SCT003 BKN004 OVC010
EDLV - Niederrhein, Germany
Distancia hasta la estación: SE 25 km
Actualización: 13-12-2019 11:50
lluvia, Parcialmente nublado  
lluvia, Parcialmente nublado  
   Viento: SSE 13 km/h
Viento: SSE 13 km/h
Temperatura: 4°C
Térmica: 1°C
Punto de rocío: 3°C
Humedad: 93%
Baromètro: 974 hPa
Nublado: Parcialmente nublado
Visibilidad: 6 km
detalles de la nube: Parcialmente nublado 500 ft
EDLV 131050Z 15007KT 6000 -RA BKN005 04/03 Q0974
EHDL - Deelen Rnlafb, Netherlands
Distancia hasta la estación: N 35 km
Actualización: 13-12-2019 11:55
lluvia, Nublado  
lluvia, Nublado  
   Viento: East 7.4 km/h
Viento: East 7.4 km/h
Temperatura: 4°C
Térmica: 2°C
Punto de rocío: 3°C
Humedad: 93%
Baromètro: 974 hPa
Nublado: Nublado
Visibilidad: 6 km
detalles de la nube: Parcialmente Nublado 500 ft,
Parcialmente nublado 600 ft,
Nublado 700 ft
EHDL 131055Z AUTO 08004KT 010V140 6000 -RA SCT005 BKN006 OVC007 04/03 Q0974 YLO
EHEH - Eindhoven Rnlafb, Netherlands
Distancia hasta la estación: SW 48 km
Actualización: 13-12-2019 12:06
Parcialmente nublado  
Parcialmente nublado  
   Viento: SW 9.3 km/h
Viento: SW 9.3 km/h
Temperatura: 7°C
Térmica: 5°C
Punto de rocío: 6°C
Humedad: 93%
Baromètro: 974 hPa
Nublado: Parcialmente nublado
Visibilidad: More than 10 km
detalles de la nube: Nubes dispersas 500 ft,
Parcialmente nublado 700 ft,
Parcialmente nublado 800 ft
EHEH 131106Z AUTO 23005KT 9999 FEW005 BKN007 BKN008 07/06 Q0974 GRN 22003KT 9999 SCT008 BKN013 BKN018 TEMPO 2500 DZRA SCT004 BKN005 BKN008
EHGR - Gilze-Rijen Rnla, Netherlands
Distancia hasta la estación: WSW 70 km
Actualización: 13-12-2019 12:08
Niebla, Nublado  
Niebla, Nublado  
   Viento: NNW 11.1 km/h
Viento: NNW 11.1 km/h
Temperatura: 5°C
Térmica: 2°C
Punto de rocío: 5°C
Humedad: 100%
Baromètro: 974 hPa
Nublado: Nublado
Visibilidad: 5 km
detalles de la nube: Nublado 200 ft
EHGR 131108Z AUTO 34006KT 280V020 5000 BR OVC002 05/05 Q0974 AMB VRB03KT 4500 BR BKN005 TEMPO 1500 DZ SCT002 OVC003
EBBL - Kleine-Brogel(Ba, Belgium
Distancia hasta la estación: SSW 71 km
Actualización: 13-12-2019 11:55
lluvia, Parcialmente nublado  
lluvia, Parcialmente nublado  
   Viento: SW 14.8 km/h
Viento: SW 14.8 km/h
Temperatura: 6°C
Térmica: 3°C
Punto de rocío: 6°C
Humedad: 100%
Baromètro: 974 hPa
Nublado: Parcialmente nublado
Visibilidad: 2 km
detalles de la nube: Nubes dispersas 700 ft,
Parcialmente nublado 1100 ft,
Parcialmente nublado 2200 ft
EBBL 131055Z 22008KT 2000 -RA FEW007 BKN011 BKN022 06/06 Q0974 YLO GRN TEMPO YLO

Guión original por  Saratoga-weather.org Adaptado para la plantilla por  Weerstation Leuven

Usted encontrará nuestra información del tiempo también en:

Iberian Peninsula Weather Network